createdAt,value
2019-05-20T00:04:54.658Z,100010.63
2019-05-20T00:11:00.646Z,100013.09
2019-05-20T00:17:06.730Z,100022.08
2019-05-20T00:23:12.657Z,100034.23
2019-05-20T00:29:18.963Z,100032.91
2019-05-20T00:35:24.780Z,100034.12
2019-05-20T00:41:30.588Z,100040.70
2019-05-20T00:47:37.584Z,100033.74
2019-05-20T00:53:43.886Z,100037.05
2019-05-20T00:59:49.775Z,100035.43
2019-05-20T01:05:55.814Z,100034.05
2019-05-20T01:12:02.064Z,100035.20
2019-05-20T01:18:08.276Z,100036.03
2019-05-20T01:24:14.521Z,100032.47
2019-05-20T01:30:21.284Z,100040.54
2019-05-20T01:36:27.417Z,100039.30
2019-05-20T01:42:33.212Z,100041.03
2019-05-20T01:48:39.119Z,100046.86
2019-05-20T01:54:45.193Z,100048.30
2019-05-20T02:00:51.410Z,100036.09
2019-05-20T02:06:58.898Z,100026.95
2019-05-20T02:13:04.980Z,100028.18
2019-05-20T02:19:11.117Z,100038.81
2019-05-20T02:25:17.034Z,100054.33
2019-05-20T02:31:22.772Z,100055.42
2019-05-20T02:37:28.777Z,100060.97
2019-05-20T02:43:35.178Z,100065.39
2019-05-20T02:49:40.943Z,100067.87
2019-05-20T02:55:46.821Z,100064.78
2019-05-20T03:01:52.927Z,100055.41
2019-05-20T03:07:59.345Z,100053.87
2019-05-20T03:14:05.605Z,100068.28
2019-05-20T03:20:11.513Z,100067.73
2019-05-20T03:26:17.331Z,100063.30
2019-05-20T03:32:25.785Z,100050.69
2019-05-20T03:38:31.595Z,100053.00
2019-05-20T03:44:37.378Z,100063.28
2019-05-20T03:50:43.114Z,100066.93
2019-05-20T03:56:49.655Z,100063.27
2019-05-20T04:02:58.505Z,100063.95
2019-05-20T04:09:05.462Z,100071.52
2019-05-20T04:15:11.563Z,100071.36
2019-05-20T04:21:17.421Z,100078.38
2019-05-20T04:27:23.195Z,100079.09
2019-05-20T04:33:29.191Z,100080.27
2019-05-20T04:39:35.158Z,100079.74
2019-05-20T04:45:41.095Z,100086.19
2019-05-20T04:51:46.973Z,100087.58
2019-05-20T04:57:52.965Z,100085.39
2019-05-20T05:03:58.767Z,100083.45
2019-05-20T05:10:05.009Z,100084.00
2019-05-20T05:16:10.891Z,100092.55
2019-05-20T05:22:16.795Z,100094.38
2019-05-20T05:28:22.593Z,100092.63
2019-05-20T05:34:28.922Z,100095.87
2019-05-20T05:40:35.407Z,100092.43
2019-05-20T05:46:41.156Z,100094.11
2019-05-20T05:52:46.990Z,100105.38
2019-05-20T05:58:53.581Z,100101.78
2019-05-20T06:04:59.918Z,100104.02
2019-05-20T06:11:05.677Z,100104.64
2019-05-20T06:17:11.490Z,100103.46
2019-05-20T06:23:17.330Z,100097.89
2019-05-20T06:29:23.094Z,100100.34
2019-05-20T06:35:29.101Z,100120.59
2019-05-20T06:41:35.302Z,100125.89
2019-05-20T06:47:41.062Z,100115.32
2019-05-20T06:53:47.769Z,100124.58
2019-05-20T06:59:53.595Z,100140.77
2019-05-20T07:05:59.360Z,100140.77
2019-05-20T07:12:05.949Z,100156.89
2019-05-20T07:18:11.857Z,100145.16
2019-05-20T07:24:17.715Z,100161.86
2019-05-20T07:30:24.102Z,100162.95
2019-05-20T07:36:29.843Z,100165.28
2019-05-20T07:42:35.797Z,100167.09
2019-05-20T07:48:43.126Z,100160.29
2019-05-20T07:54:49.818Z,100153.48
2019-05-20T08:00:55.617Z,100160.86
2019-05-20T08:07:01.556Z,100165.19
2019-05-20T08:13:07.414Z,100169.60
2019-05-20T08:19:13.446Z,100159.83
2019-05-20T08:25:19.776Z,100173.72
2019-05-20T08:37:45.811Z,100172.44
2019-05-20T08:43:49.405Z,100185.26
2019-05-20T08:49:55.500Z,100193.45
2019-05-20T08:56:01.435Z,100192.02
2019-05-20T09:02:07.617Z,100193.06
2019-05-20T09:08:13.421Z,100196.78
2019-05-20T09:14:19.235Z,100190.91
2019-05-20T09:20:25.421Z,100194.48
2019-05-20T09:26:31.351Z,100193.05
2019-05-20T09:32:42.345Z,100195.66
2019-05-20T09:38:45.982Z,100194.52
2019-05-20T09:44:51.863Z,100189.91
2019-05-20T09:50:57.919Z,100193.20
2019-05-20T09:57:03.734Z,100187.03
2019-05-20T10:03:09.913Z,100192.22
2019-05-20T10:09:15.747Z,100202.61
2019-05-20T10:15:22.721Z,100200.75
2019-05-20T10:21:28.838Z,100195.73
2019-05-20T10:27:35.356Z,100206.36
2019-05-20T10:33:41.246Z,100209.96
2019-05-20T10:39:47.444Z,100216.48
2019-05-20T10:45:53.325Z,100225.52
2019-05-20T10:51:59.075Z,100227.52
2019-05-20T10:58:04.875Z,100223.84
2019-05-20T11:04:10.726Z,100226.63
2019-05-20T11:10:16.965Z,100229.63
2019-05-20T11:16:22.791Z,100229.52
2019-05-20T11:22:29.110Z,100239.27
2019-05-20T11:28:35.037Z,100242.98
2019-05-20T11:34:40.869Z,100252.11
2019-05-20T11:40:47.164Z,100248.55
2019-05-20T11:46:53.366Z,100252.78
2019-05-20T11:52:59.415Z,100259.14
2019-05-20T11:59:06.505Z,100249.49
2019-05-20T12:05:12.759Z,100255.45
2019-05-20T12:11:18.532Z,100251.48
2019-05-20T12:17:24.695Z,100246.16
2019-05-20T12:23:30.886Z,100247.48
2019-05-20T12:29:54.674Z,100250.84
2019-05-20T12:36:02.267Z,100247.22
2019-05-20T12:42:08.139Z,100252.48
2019-05-20T12:48:14.127Z,100253.91
2019-05-20T12:54:19.831Z,100247.69
2019-05-20T13:00:26.058Z,100254.27
2019-05-20T13:06:31.841Z,100254.74
2019-05-20T13:12:39.661Z,100253.07
2019-05-20T13:18:55.334Z,100247.88
2019-05-20T13:24:53.321Z,100239.77
2019-05-20T13:30:59.093Z,100243.23
2019-05-20T13:37:04.893Z,100233.89
2019-05-20T13:43:12.678Z,100242.44
2019-05-20T13:49:18.561Z,100240.83
2019-05-20T13:55:27.977Z,100238.61
2019-05-20T14:01:34.177Z,100241.88
2019-05-20T14:07:40.676Z,100246.75
2019-05-20T14:13:46.500Z,100237.41
2019-05-20T14:19:52.554Z,100243.51
2019-05-20T14:25:58.897Z,100242.74
2019-05-20T14:32:04.730Z,100243.90
2019-05-20T14:38:10.507Z,100234.63
2019-05-20T14:44:16.453Z,100235.55
2019-05-20T14:50:22.635Z,100231.27
2019-05-20T14:56:28.488Z,100231.06
2019-05-20T15:02:34.258Z,100237.20
2019-05-20T15:08:44.434Z,100230.37
2019-05-20T15:14:50.645Z,100233.79
2019-05-20T15:20:57.238Z,100225.56
2019-05-20T15:27:03.171Z,100235.33
2019-05-20T15:33:09.058Z,100231.45
2019-05-20T15:39:14.922Z,100239.88
2019-05-20T15:45:21.024Z,100228.48
2019-05-20T15:51:26.925Z,100223.86
2019-05-20T15:57:33.191Z,100221.90
2019-05-20T16:03:39.174Z,100224.41
2019-05-20T16:09:45.227Z,100220.44
2019-05-20T16:15:51.529Z,100221.45
2019-05-20T16:21:57.520Z,100220.98
2019-05-20T16:28:03.551Z,100224.22
2019-05-20T16:34:09.439Z,100225.77
2019-05-20T16:40:15.582Z,100222.67
2019-05-20T16:46:21.626Z,100221.76
2019-05-20T16:52:27.466Z,100225.64
2019-05-20T16:58:33.247Z,100224.95
2019-05-20T17:04:39.074Z,100225.10
2019-05-20T17:10:45.164Z,100223.55
2019-05-20T17:16:51.072Z,100227.88
2019-05-20T17:22:56.970Z,100236.28
2019-05-20T17:29:02.765Z,100250.27
2019-05-20T17:35:09.110Z,100257.34
2019-05-20T17:41:14.879Z,100257.29
2019-05-20T17:47:21.004Z,100245.65
2019-05-20T17:53:27.388Z,100255.25
2019-05-20T17:59:33.205Z,100255.34
2019-05-20T18:05:39.361Z,100259.53
2019-05-20T18:11:46.013Z,100268.15
2019-05-20T18:17:52.657Z,100291.73
2019-05-20T18:23:58.632Z,100293.98
2019-05-20T18:30:04.721Z,100299.30
2019-05-20T18:36:10.814Z,100294.69
2019-05-20T18:42:17.360Z,100300.91
2019-05-20T18:48:23.408Z,100294.25
2019-05-20T18:54:29.712Z,100295.91
2019-05-20T19:00:35.917Z,100299.98
2019-05-20T19:06:42.326Z,100298.89
2019-05-20T19:12:48.243Z,100297.75
2019-05-20T19:18:55.127Z,100303.70
2019-05-20T19:25:02.977Z,100305.50
2019-05-20T19:31:08.937Z,100301.78
2019-05-20T19:37:14.961Z,100293.59
2019-05-20T19:43:20.875Z,100297.06
2019-05-20T19:49:27.188Z,100305.21
2019-05-20T19:55:33.028Z,100309.80
2019-05-20T20:01:38.827Z,100316.20
2019-05-20T20:07:44.663Z,100321.95
2019-05-20T20:13:50.418Z,100332.69
2019-05-20T20:19:58.262Z,100332.27
2019-05-20T20:26:04.108Z,100337.88
2019-05-20T20:32:10.199Z,100337.66
2019-05-20T20:38:16.161Z,100341.02
2019-05-20T20:44:21.995Z,100343.72
2019-05-20T20:50:28.079Z,100347.43
2019-05-20T20:56:34.407Z,100340.41
2019-05-20T21:02:52.107Z,100351.05
2019-05-20T21:08:48.005Z,100353.58
2019-05-20T21:14:53.820Z,100354.01
2019-05-20T21:20:59.627Z,100355.43
2019-05-20T21:27:05.618Z,100365.94
2019-05-20T21:33:11.548Z,100370.50
2019-05-20T21:39:17.604Z,100354.66
2019-05-20T21:45:23.453Z,100361.91
2019-05-20T21:51:29.277Z,100355.95
2019-05-20T21:57:35.326Z,100363.99
2019-05-20T22:03:41.367Z,100354.45
2019-05-20T22:09:47.174Z,100366.77
2019-05-20T22:15:53.353Z,100349.66
2019-05-20T22:22:07.002Z,100351.66
2019-05-20T22:28:13.182Z,100356.00
2019-05-20T22:34:19.186Z,100362.06
2019-05-20T22:40:25.238Z,100358.98
2019-05-20T22:46:31.046Z,100366.19
2019-05-20T22:52:37.018Z,100366.43
2019-05-20T22:58:42.984Z,100366.46
2019-05-20T23:04:48.961Z,100382.22
2019-05-20T23:10:54.845Z,100384.12
2019-05-20T23:17:00.867Z,100386.67
2019-05-20T23:23:06.678Z,100373.77
2019-05-20T23:29:12.446Z,100389.05
2019-05-20T23:35:18.531Z,100377.72
2019-05-20T23:41:24.402Z,100385.47
2019-05-20T23:47:30.304Z,100381.12
2019-05-20T23:53:37.913Z,100387.20
2019-05-20T23:59:43.657Z,100384.98
